sensor_id;sensor_type;location;lat;lon;timestamp;P1;durP1;ratioP1;P2;durP2;ratioP2
21010;SDS011;10663;42.714;23.274;2023-10-19T06:23:08;47.17;;;31.87;;
21010;SDS011;10663;42.714;23.274;2023-10-19T06:24:39;44.03;;;32.97;;
21010;SDS011;10663;42.714;23.274;2023-10-19T06:26:11;44.85;;;32.30;;
21010;SDS011;10663;42.714;23.274;2023-10-19T06:27:44;48.38;;;33.65;;
21010;SDS011;10663;42.714;23.274;2023-10-19T06:29:15;47.95;;;34.72;;
21010;SDS011;10663;42.714;23.274;2023-10-19T06:30:46;50.15;;;33.22;;
21010;SDS011;10663;42.714;23.274;2023-10-19T06:32:18;50.28;;;36.53;;
21010;SDS011;10663;42.714;23.274;2023-10-19T06:33:49;45.53;;;34.20;;
21010;SDS011;10663;42.714;23.274;2023-10-19T06:35:20;45.80;;;34.63;;
21010;SDS011;10663;42.714;23.274;2023-10-19T06:36:51;50.30;;;36.28;;
21010;SDS011;10663;42.714;23.274;2023-10-19T06:38:22;43.17;;;34.05;;
21010;SDS011;10663;42.714;23.274;2023-10-19T06:39:54;43.70;;;32.88;;
21010;SDS011;10663;42.714;23.274;2023-10-19T06:41:25;43.95;;;33.65;;
21010;SDS011;10663;42.714;23.274;2023-10-19T06:42:55;41.30;;;31.60;;
21010;SDS011;10663;42.714;23.274;2023-10-19T06:44:28;42.55;;;31.38;;
21010;SDS011;10663;42.714;23.274;2023-10-19T06:45:58;43.78;;;30.95;;
21010;SDS011;10663;42.714;23.274;2023-10-19T06:47:30;40.20;;;30.92;;
21010;SDS011;10663;42.714;23.274;2023-10-19T06:49:01;37.17;;;30.83;;
21010;SDS011;10663;42.714;23.274;2023-10-19T06:50:33;42.17;;;31.40;;
21010;SDS011;10663;42.714;23.274;2023-10-19T06:52:03;36.97;;;29.77;;
21010;SDS011;10663;42.714;23.274;2023-10-19T06:53:40;36.63;;;28.38;;
21010;SDS011;10663;42.714;23.274;2023-10-19T06:55:11;37.13;;;27.50;;
21010;SDS011;10663;42.714;23.274;2023-10-19T06:56:47;34.72;;;27.80;;
21010;SDS011;10663;42.714;23.274;2023-10-19T07:02:57;35.67;;;26.95;;
21010;SDS011;10663;42.714;23.274;2023-10-19T07:06:02;35.67;;;28.58;;
21010;SDS011;10663;42.714;23.274;2023-10-19T07:07:33;36.05;;;28.00;;
21010;SDS011;10663;42.714;23.274;2023-10-19T07:42:40;40.83;;;31.13;;
21010;SDS011;10663;42.714;23.274;2023-10-19T07:44:12;41.90;;;31.17;;
21010;SDS011;10663;42.714;23.274;2023-10-19T07:45:43;41.17;;;32.20;;
21010;SDS011;10663;42.714;23.274;2023-10-19T07:47:14;44.90;;;34.75;;
21010;SDS011;10663;42.714;23.274;2023-10-19T07:48:45;42.90;;;33.80;;
21010;SDS011;10663;42.714;23.274;2023-10-19T07:50:16;45.53;;;34.28;;
21010;SDS011;10663;42.714;23.274;2023-10-19T07:51:47;40.75;;;33.20;;
21010;SDS011;10663;42.714;23.274;2023-10-19T07:53:18;43.77;;;32.97;;
21010;SDS011;10663;42.714;23.274;2023-10-19T07:54:49;43.67;;;34.22;;
21010;SDS011;10663;42.714;23.274;2023-10-19T07:56:19;41.40;;;33.58;;
21010;SDS011;10663;42.714;23.274;2023-10-19T07:57:51;43.55;;;34.40;;
21010;SDS011;10663;42.714;23.274;2023-10-19T07:59:25;42.95;;;33.22;;
21010;SDS011;10663;42.714;23.274;2023-10-19T08:00:56;42.83;;;32.67;;
21010;SDS011;10663;42.714;23.274;2023-10-19T08:02:27;39.58;;;31.85;;
21010;SDS011;10663;42.714;23.274;2023-10-19T08:03:59;38.33;;;29.40;;
21010;SDS011;10663;42.714;23.274;2023-10-19T08:05:30;37.35;;;30.08;;
21010;SDS011;10663;42.714;23.274;2023-10-19T08:07:01;43.42;;;33.80;;
21010;SDS011;10663;42.714;23.274;2023-10-19T08:08:32;39.03;;;30.45;;
21010;SDS011;10663;42.714;23.274;2023-10-19T08:10:06;41.08;;;33.05;;
21010;SDS011;10663;42.714;23.274;2023-10-19T08:11:39;43.00;;;31.77;;
21010;SDS011;10663;42.714;23.274;2023-10-19T08:13:13;40.33;;;30.85;;
21010;SDS011;10663;42.714;23.274;2023-10-19T08:14:43;41.05;;;30.85;;
21010;SDS011;10663;42.714;23.274;2023-10-19T08:16:16;39.85;;;30.85;;
21010;SDS011;10663;42.714;23.274;2023-10-19T08:17:48;42.33;;;31.90;;
21010;SDS011;10663;42.714;23.274;2023-10-19T08:19:21;40.65;;;28.60;;
21010;SDS011;10663;42.714;23.274;2023-10-19T08:20:51;35.70;;;28.75;;
21010;SDS011;10663;42.714;23.274;2023-10-19T08:22:23;34.25;;;27.05;;
21010;SDS011;10663;42.714;23.274;2023-10-19T08:23:56;35.15;;;27.38;;
21010;SDS011;10663;42.714;23.274;2023-10-19T08:25:26;34.40;;;27.00;;
21010;SDS011;10663;42.714;23.274;2023-10-19T08:26:57;36.35;;;28.42;;
21010;SDS011;10663;42.714;23.274;2023-10-19T08:28:28;33.75;;;27.42;;
21010;SDS011;10663;42.714;23.274;2023-10-19T08:29:59;32.97;;;26.65;;
21010;SDS011;10663;42.714;23.274;2023-10-19T08:31:29;33.05;;;26.65;;
21010;SDS011;10663;42.714;23.274;2023-10-19T08:33:01;36.05;;;28.35;;
21010;SDS011;10663;42.714;23.274;2023-10-19T08:34:35;35.00;;;27.02;;
21010;SDS011;10663;42.714;23.274;2023-10-19T08:36:15;34.60;;;27.60;;
21010;SDS011;10663;42.714;23.274;2023-10-19T08:37:47;30.92;;;25.83;;
21010;SDS011;10663;42.714;23.274;2023-10-19T08:39:18;34.35;;;27.00;;
21010;SDS011;10663;42.714;23.274;2023-10-19T08:40:49;30.13;;;24.38;;
21010;SDS011;10663;42.714;23.274;2023-10-19T08:42:21;30.23;;;23.25;;
21010;SDS011;10663;42.714;23.274;2023-10-19T08:43:51;28.13;;;22.60;;
21010;SDS011;10663;42.714;23.274;2023-10-19T08:45:26;26.55;;;21.75;;
21010;SDS011;10663;42.714;23.274;2023-10-19T08:46:57;28.92;;;22.50;;
21010;SDS011;10663;42.714;23.274;2023-10-19T08:48:32;35.53;;;26.23;;
21010;SDS011;10663;42.714;23.274;2023-10-19T08:50:05;31.98;;;23.27;;
21010;SDS011;10663;42.714;23.274;2023-10-19T08:51:36;26.40;;;21.88;;
21010;SDS011;10663;42.714;23.274;2023-10-19T08:53:09;22.45;;;18.60;;
21010;SDS011;10663;42.714;23.274;2023-10-19T08:54:44;25.98;;;20.02;;
21010;SDS011;10663;42.714;23.274;2023-10-19T08:56:14;20.65;;;16.95;;
21010;SDS011;10663;42.714;23.274;2023-10-19T08:57:47;17.38;;;14.60;;
21010;SDS011;10663;42.714;23.274;2023-10-19T08:59:19;17.90;;;15.40;;
21010;SDS011;10663;42.714;23.274;2023-10-19T09:00:50;20.20;;;16.50;;
21010;SDS011;10663;42.714;23.274;2023-10-19T09:02:25;20.48;;;16.55;;
21010;SDS011;10663;42.714;23.274;2023-10-19T09:03:57;28.27;;;20.85;;
21010;SDS011;10663;42.714;23.274;2023-10-19T09:05:28;23.63;;;17.13;;
21010;SDS011;10663;42.714;23.274;2023-10-19T09:07:00;19.03;;;16.03;;
21010;SDS011;10663;42.714;23.274;2023-10-19T09:08:39;14.65;;;12.73;;
21010;SDS011;10663;42.714;23.274;2023-10-19T09:10:10;15.57;;;12.75;;
21010;SDS011;10663;42.714;23.274;2023-10-19T09:11:46;21.00;;;16.70;;
21010;SDS011;10663;42.714;23.274;2023-10-19T09:13:19;23.70;;;17.17;;
21010;SDS011;10663;42.714;23.274;2023-10-19T09:14:52;15.67;;;12.83;;
21010;SDS011;10663;42.714;23.274;2023-10-19T09:16:23;14.37;;;11.70;;
21010;SDS011;10663;42.714;23.274;2023-10-19T09:17:54;17.85;;;14.57;;
21010;SDS011;10663;42.714;23.274;2023-10-19T09:19:43;15.77;;;12.00;;
21010;SDS011;10663;42.714;23.274;2023-10-19T09:21:19;17.70;;;14.52;;
21010;SDS011;10663;42.714;23.274;2023-10-19T09:22:58;19.17;;;13.90;;
21010;SDS011;10663;42.714;23.274;2023-10-19T09:24:30;17.40;;;13.95;;
21010;SDS011;10663;42.714;23.274;2023-10-19T09:26:02;22.55;;;16.15;;
21010;SDS011;10663;42.714;23.274;2023-10-19T09:27:35;19.08;;;14.77;;
21010;SDS011;10663;42.714;23.274;2023-10-19T09:29:06;17.17;;;14.40;;
21010;SDS011;10663;42.714;23.274;2023-10-19T09:31:04;21.10;;;16.02;;
21010;SDS011;10663;42.714;23.274;2023-10-19T09:32:35;15.63;;;13.90;;
21010;SDS011;10663;42.714;23.274;2023-10-19T09:34:06;23.33;;;15.70;;
21010;SDS011;10663;42.714;23.274;2023-10-19T09:35:41;19.25;;;16.30;;
21010;SDS011;10663;42.714;23.274;2023-10-19T09:37:16;17.58;;;14.57;;
21010;SDS011;10663;42.714;23.274;2023-10-19T09:38:48;16.25;;;13.35;;
21010;SDS011;10663;42.714;23.274;2023-10-19T09:40:23;17.95;;;14.50;;
21010;SDS011;10663;42.714;23.274;2023-10-19T09:41:54;19.02;;;13.63;;
21010;SDS011;10663;42.714;23.274;2023-10-19T09:45:19;17.77;;;14.95;;
21010;SDS011;10663;42.714;23.274;2023-10-19T09:46:50;15.60;;;13.65;;
21010;SDS011;10663;42.714;23.274;2023-10-19T09:48:26;21.98;;;17.38;;
21010;SDS011;10663;42.714;23.274;2023-10-19T09:49:57;15.60;;;13.00;;
21010;SDS011;10663;42.714;23.274;2023-10-19T09:51:28;16.53;;;13.63;;
21010;SDS011;10663;42.714;23.274;2023-10-19T09:53:03;14.57;;;12.73;;
21010;SDS011;10663;42.714;23.274;2023-10-19T09:56:21;15.23;;;13.63;;
21010;SDS011;10663;42.714;23.274;2023-10-19T09:58:16;16.25;;;13.68;;
21010;SDS011;10663;42.714;23.274;2023-10-19T09:59:51;15.48;;;13.13;;
21010;SDS011;10663;42.714;23.274;2023-10-19T10:01:27;15.48;;;13.65;;
21010;SDS011;10663;42.714;23.274;2023-10-19T10:02:58;14.98;;;13.32;;
21010;SDS011;10663;42.714;23.274;2023-10-19T10:04:32;14.80;;;13.13;;
21010;SDS011;10663;42.714;23.274;2023-10-19T10:06:03;15.32;;;12.52;;
21010;SDS011;10663;42.714;23.274;2023-10-19T10:07:35;20.63;;;15.27;;
21010;SDS011;10663;42.714;23.274;2023-10-19T10:09:05;14.40;;;12.35;;
21010;SDS011;10663;42.714;23.274;2023-10-19T10:10:42;16.33;;;14.00;;
21010;SDS011;10663;42.714;23.274;2023-10-19T10:13:55;15.93;;;14.17;;
21010;SDS011;10663;42.714;23.274;2023-10-19T10:15:38;15.38;;;13.77;;
21010;SDS011;10663;42.714;23.274;2023-10-19T10:17:16;14.30;;;12.80;;
21010;SDS011;10663;42.714;23.274;2023-10-19T10:18:49;15.77;;;13.30;;
21010;SDS011;10663;42.714;23.274;2023-10-19T10:22:07;16.70;;;14.20;;
21010;SDS011;10663;42.714;23.274;2023-10-19T10:23:53;16.67;;;14.15;;
21010;SDS011;10663;42.714;23.274;2023-10-19T10:25:26;16.75;;;14.10;;
21010;SDS011;10663;42.714;23.274;2023-10-19T10:26:58;14.90;;;12.48;;
21010;SDS011;10663;42.714;23.274;2023-10-19T10:28:33;15.45;;;13.35;;
21010;SDS011;10663;42.714;23.274;2023-10-19T10:30:06;16.60;;;13.20;;
21010;SDS011;10663;42.714;23.274;2023-10-19T10:31:41;16.70;;;13.60;;
21010;SDS011;10663;42.714;23.274;2023-10-19T10:33:24;15.40;;;13.80;;
21010;SDS011;10663;42.714;23.274;2023-10-19T10:35:07;15.95;;;12.88;;
21010;SDS011;10663;42.714;23.274;2023-10-19T10:37:01;16.20;;;13.23;;
21010;SDS011;10663;42.714;23.274;2023-10-19T10:38:34;16.33;;;14.18;;
21010;SDS011;10663;42.714;23.274;2023-10-19T10:40:06;17.13;;;13.40;;
21010;SDS011;10663;42.714;23.274;2023-10-19T10:41:37;14.73;;;12.60;;
21010;SDS011;10663;42.714;23.274;2023-10-19T10:43:07;15.10;;;12.67;;
21010;SDS011;10663;42.714;23.274;2023-10-19T10:44:39;15.47;;;12.87;;
21010;SDS011;10663;42.714;23.274;2023-10-19T10:46:14;14.63;;;11.65;;
21010;SDS011;10663;42.714;23.274;2023-10-19T10:47:44;13.23;;;11.83;;
21010;SDS011;10663;42.714;23.274;2023-10-19T10:49:16;12.40;;;11.10;;
21010;SDS011;10663;42.714;23.274;2023-10-19T10:50:47;12.52;;;11.20;;
21010;SDS011;10663;42.714;23.274;2023-10-19T10:52:30;13.13;;;11.23;;
21010;SDS011;10663;42.714;23.274;2023-10-19T10:54:03;13.95;;;11.98;;
21010;SDS011;10663;42.714;23.274;2023-10-19T10:55:34;14.55;;;11.50;;
21010;SDS011;10663;42.714;23.274;2023-10-19T10:57:05;13.83;;;11.73;;
21010;SDS011;10663;42.714;23.274;2023-10-19T10:58:37;12.35;;;10.88;;
21010;SDS011;10663;42.714;23.274;2023-10-19T11:00:13;14.68;;;10.93;;
21010;SDS011;10663;42.714;23.274;2023-10-19T11:01:54;13.05;;;10.93;;
21010;SDS011;10663;42.714;23.274;2023-10-19T11:03:25;12.57;;;11.25;;
21010;SDS011;10663;42.714;23.274;2023-10-19T11:05:00;12.95;;;10.02;;
21010;SDS011;10663;42.714;23.274;2023-10-19T11:06:31;12.82;;;9.85;;
21010;SDS011;10663;42.714;23.274;2023-10-19T11:08:06;11.93;;;10.50;;
21010;SDS011;10663;42.714;23.274;2023-10-19T11:09:48;11.68;;;10.20;;
21010;SDS011;10663;42.714;23.274;2023-10-19T11:11:19;12.57;;;10.25;;
21010;SDS011;10663;42.714;23.274;2023-10-19T11:12:50;10.70;;;9.50;;
21010;SDS011;10663;42.714;23.274;2023-10-19T11:14:21;10.73;;;9.40;;
21010;SDS011;10663;42.714;23.274;2023-10-19T11:15:55;10.43;;;8.57;;
21010;SDS011;10663;42.714;23.274;2023-10-19T11:17:30;9.48;;;8.45;;
21010;SDS011;10663;42.714;23.274;2023-10-19T11:19:01;9.07;;;8.15;;
21010;SDS011;10663;42.714;23.274;2023-10-19T11:20:32;11.73;;;9.02;;
21010;SDS011;10663;42.714;23.274;2023-10-19T11:22:03;9.93;;;8.85;;
21010;SDS011;10663;42.714;23.274;2023-10-19T11:23:44;9.63;;;8.63;;
21010;SDS011;10663;42.714;23.274;2023-10-19T11:25:20;10.93;;;8.80;;
21010;SDS011;10663;42.714;23.274;2023-10-19T11:26:52;10.40;;;8.70;;
21010;SDS011;10663;42.714;23.274;2023-10-19T11:28:22;11.55;;;8.60;;
21010;SDS011;10663;42.714;23.274;2023-10-19T11:29:56;9.30;;;8.37;;
21010;SDS011;10663;42.714;23.274;2023-10-19T11:31:28;10.13;;;8.70;;
21010;SDS011;10663;42.714;23.274;2023-10-19T11:33:07;9.70;;;8.00;;
21010;SDS011;10663;42.714;23.274;2023-10-19T11:34:38;9.73;;;8.57;;
21010;SDS011;10663;42.714;23.274;2023-10-19T11:36:11;12.00;;;9.90;;
21010;SDS011;10663;42.714;23.274;2023-10-19T11:37:46;15.75;;;12.10;;
21010;SDS011;10663;42.714;23.274;2023-10-19T11:39:20;11.90;;;9.70;;
21010;SDS011;10663;42.714;23.274;2023-10-19T11:40:53;21.63;;;16.55;;
21010;SDS011;10663;42.714;23.274;2023-10-19T11:42:24;10.37;;;8.63;;
21010;SDS011;10663;42.714;23.274;2023-10-19T11:43:55;14.27;;;11.85;;
21010;SDS011;10663;42.714;23.274;2023-10-19T11:45:25;15.05;;;12.65;;
21010;SDS011;10663;42.714;23.274;2023-10-19T11:46:56;13.80;;;10.23;;
21010;SDS011;10663;42.714;23.274;2023-10-19T11:48:27;9.50;;;8.32;;
21010;SDS011;10663;42.714;23.274;2023-10-19T11:49:58;10.00;;;8.50;;
21010;SDS011;10663;42.714;23.274;2023-10-19T11:51:29;9.17;;;7.67;;
21010;SDS011;10663;42.714;23.274;2023-10-19T11:53:01;11.23;;;8.90;;
21010;SDS011;10663;42.714;23.274;2023-10-19T11:54:33;10.23;;;9.20;;
21010;SDS011;10663;42.714;23.274;2023-10-19T11:56:08;10.32;;;8.60;;
21010;SDS011;10663;42.714;23.274;2023-10-19T11:57:46;9.45;;;8.45;;
21010;SDS011;10663;42.714;23.274;2023-10-19T11:59:17;10.57;;;9.48;;
21010;SDS011;10663;42.714;23.274;2023-10-19T12:00:48;12.17;;;9.00;;
21010;SDS011;10663;42.714;23.274;2023-10-19T12:02:19;9.68;;;8.68;;
21010;SDS011;10663;42.714;23.274;2023-10-19T12:03:49;9.57;;;8.57;;
21010;SDS011;10663;42.714;23.274;2023-10-19T12:05:21;8.80;;;7.90;;
21010;SDS011;10663;42.714;23.274;2023-10-19T12:06:54;9.40;;;8.35;;
21010;SDS011;10663;42.714;23.274;2023-10-19T12:08:25;10.40;;;8.05;;
21010;SDS011;10663;42.714;23.274;2023-10-19T12:09:56;8.70;;;7.60;;
21010;SDS011;10663;42.714;23.274;2023-10-19T12:11:28;9.67;;;8.40;;
21010;SDS011;10663;42.714;23.274;2023-10-19T12:13:00;8.57;;;7.50;;
21010;SDS011;10663;42.714;23.274;2023-10-19T12:14:32;8.40;;;7.55;;
21010;SDS011;10663;42.714;23.274;2023-10-19T12:16:04;8.40;;;7.15;;
21010;SDS011;10663;42.714;23.274;2023-10-19T12:17:35;8.60;;;7.80;;
21010;SDS011;10663;42.714;23.274;2023-10-19T12:19:06;12.27;;;8.57;;
21010;SDS011;10663;42.714;23.274;2023-10-19T12:20:40;9.35;;;8.23;;
21010;SDS011;10663;42.714;23.274;2023-10-19T12:22:15;9.75;;;8.00;;
21010;SDS011;10663;42.714;23.274;2023-10-19T12:23:46;9.97;;;8.47;;
21010;SDS011;10663;42.714;23.274;2023-10-19T12:25:21;9.95;;;7.47;;
21010;SDS011;10663;42.714;23.274;2023-10-19T12:26:59;8.47;;;7.60;;
21010;SDS011;10663;42.714;23.274;2023-10-19T12:28:29;9.20;;;8.27;;
21010;SDS011;10663;42.714;23.274;2023-10-19T12:30:00;9.23;;;7.78;;
21010;SDS011;10663;42.714;23.274;2023-10-19T12:31:41;9.63;;;8.20;;
21010;SDS011;10663;42.714;23.274;2023-10-19T12:33:12;8.77;;;7.30;;
21010;SDS011;10663;42.714;23.274;2023-10-19T12:34:43;9.80;;;7.53;;
21010;SDS011;10663;42.714;23.274;2023-10-19T12:36:15;8.75;;;7.50;;
21010;SDS011;10663;42.714;23.274;2023-10-19T12:37:52;7.25;;;6.32;;
21010;SDS011;10663;42.714;23.274;2023-10-19T12:39:23;8.63;;;6.83;;
21010;SDS011;10663;42.714;23.274;2023-10-19T12:41:06;7.63;;;6.85;;
21010;SDS011;10663;42.714;23.274;2023-10-19T12:42:37;7.50;;;6.20;;
21010;SDS011;10663;42.714;23.274;2023-10-19T12:44:08;7.43;;;6.73;;
21010;SDS011;10663;42.714;23.274;2023-10-19T12:45:39;10.00;;;7.30;;
21010;SDS011;10663;42.714;23.274;2023-10-19T12:47:10;7.70;;;6.68;;
21010;SDS011;10663;42.714;23.274;2023-10-19T12:48:45;8.00;;;6.70;;
21010;SDS011;10663;42.714;23.274;2023-10-19T12:50:19;7.78;;;6.43;;
21010;SDS011;10663;42.714;23.274;2023-10-19T12:51:53;8.95;;;7.35;;
21010;SDS011;10663;42.714;23.274;2023-10-19T12:53:24;7.25;;;6.38;;
21010;SDS011;10663;42.714;23.274;2023-10-19T12:54:55;7.60;;;6.90;;
21010;SDS011;10663;42.714;23.274;2023-10-19T12:56:29;7.80;;;6.53;;
21010;SDS011;10663;42.714;23.274;2023-10-19T12:58:04;8.55;;;6.70;;
21010;SDS011;10663;42.714;23.274;2023-10-19T12:59:39;9.00;;;6.72;;
21010;SDS011;10663;42.714;23.274;2023-10-19T13:01:10;7.03;;;6.33;;
21010;SDS011;10663;42.714;23.274;2023-10-19T13:02:47;8.02;;;7.20;;
21010;SDS011;10663;42.714;23.274;2023-10-19T13:04:18;7.53;;;5.60;;
21010;SDS011;10663;42.714;23.274;2023-10-19T13:05:49;8.65;;;6.40;;
21010;SDS011;10663;42.714;23.274;2023-10-19T13:07:19;7.35;;;6.63;;
21010;SDS011;10663;42.714;23.274;2023-10-19T13:08:51;7.47;;;6.68;;
21010;SDS011;10663;42.714;23.274;2023-10-19T13:10:22;7.88;;;6.57;;
21010;SDS011;10663;42.714;23.274;2023-10-19T13:11:53;6.93;;;5.97;;
21010;SDS011;10663;42.714;23.274;2023-10-19T13:13:24;5.97;;;5.38;;
21010;SDS011;10663;42.714;23.274;2023-10-19T13:14:56;7.40;;;6.13;;
21010;SDS011;10663;42.714;23.274;2023-10-19T13:16:27;7.82;;;5.63;;
21010;SDS011;10663;42.714;23.274;2023-10-19T13:17:58;8.13;;;6.28;;
21010;SDS011;10663;42.714;23.274;2023-10-19T13:19:31;9.15;;;6.32;;
21010;SDS011;10663;42.714;23.274;2023-10-19T13:21:02;8.27;;;6.38;;
21010;SDS011;10663;42.714;23.274;2023-10-19T13:22:35;7.38;;;6.20;;
21010;SDS011;10663;42.714;23.274;2023-10-19T13:24:05;7.30;;;6.00;;
21010;SDS011;10663;42.714;23.274;2023-10-19T13:25:37;7.10;;;6.30;;
21010;SDS011;10663;42.714;23.274;2023-10-19T13:27:16;6.93;;;6.03;;
21010;SDS011;10663;42.714;23.274;2023-10-19T13:28:47;7.93;;;6.20;;
21010;SDS011;10663;42.714;23.274;2023-10-19T13:30:19;9.10;;;6.50;;
21010;SDS011;10663;42.714;23.274;2023-10-19T13:31:49;7.35;;;6.30;;
21010;SDS011;10663;42.714;23.274;2023-10-19T13:33:21;8.57;;;7.00;;
21010;SDS011;10663;42.714;23.274;2023-10-19T13:34:54;7.13;;;6.32;;
21010;SDS011;10663;42.714;23.274;2023-10-19T13:36:25;7.97;;;7.03;;
21010;SDS011;10663;42.714;23.274;2023-10-19T13:37:56;6.93;;;6.17;;
21010;SDS011;10663;42.714;23.274;2023-10-19T13:39:27;8.48;;;6.18;;
21010;SDS011;10663;42.714;23.274;2023-10-19T13:40:58;8.65;;;5.90;;
21010;SDS011;10663;42.714;23.274;2023-10-19T13:42:29;8.47;;;6.37;;
21010;SDS011;10663;42.714;23.274;2023-10-19T13:44:19;8.25;;;6.00;;
21010;SDS011;10663;42.714;23.274;2023-10-19T13:46:00;7.55;;;6.43;;
21010;SDS011;10663;42.714;23.274;2023-10-19T13:47:31;7.38;;;6.10;;
21010;SDS011;10663;42.714;23.274;2023-10-19T13:49:04;6.72;;;5.57;;
21010;SDS011;10663;42.714;23.274;2023-10-19T13:50:40;7.20;;;6.15;;
21010;SDS011;10663;42.714;23.274;2023-10-19T13:52:13;6.80;;;6.15;;
21010;SDS011;10663;42.714;23.274;2023-10-19T13:53:46;6.80;;;6.10;;
21010;SDS011;10663;42.714;23.274;2023-10-19T13:55:17;7.45;;;6.35;;
21010;SDS011;10663;42.714;23.274;2023-10-19T13:56:49;7.88;;;6.43;;
21010;SDS011;10663;42.714;23.274;2023-10-19T13:58:20;6.82;;;6.13;;
21010;SDS011;10663;42.714;23.274;2023-10-19T13:59:51;8.45;;;6.45;;
21010;SDS011;10663;42.714;23.274;2023-10-19T14:01:23;7.20;;;5.93;;
21010;SDS011;10663;42.714;23.274;2023-10-19T14:02:56;8.38;;;6.45;;
21010;SDS011;10663;42.714;23.274;2023-10-19T14:04:31;8.70;;;6.70;;
21010;SDS011;10663;42.714;23.274;2023-10-19T14:06:02;7.07;;;6.10;;
21010;SDS011;10663;42.714;23.274;2023-10-19T14:07:32;6.73;;;5.83;;
21010;SDS011;10663;42.714;23.274;2023-10-19T14:09:03;10.20;;;7.40;;
21010;SDS011;10663;42.714;23.274;2023-10-19T14:10:35;11.82;;;9.75;;
21010;SDS011;10663;42.714;23.274;2023-10-19T14:12:06;6.50;;;5.88;;
21010;SDS011;10663;42.714;23.274;2023-10-19T14:13:39;10.90;;;7.68;;
21010;SDS011;10663;42.714;23.274;2023-10-19T14:15:14;6.65;;;5.80;;
21010;SDS011;10663;42.714;23.274;2023-10-19T14:16:51;6.22;;;5.63;;
21010;SDS011;10663;42.714;23.274;2023-10-19T14:18:22;6.90;;;5.75;;
21010;SDS011;10663;42.714;23.274;2023-10-19T14:19:52;8.27;;;5.60;;
21010;SDS011;10663;42.714;23.274;2023-10-19T14:21:23;6.20;;;5.50;;
21010;SDS011;10663;42.714;23.274;2023-10-19T14:22:57;7.20;;;5.50;;
21010;SDS011;10663;42.714;23.274;2023-10-19T14:24:28;6.77;;;5.27;;
21010;SDS011;10663;42.714;23.274;2023-10-19T14:25:59;6.65;;;5.68;;
21010;SDS011;10663;42.714;23.274;2023-10-19T14:27:30;6.60;;;5.90;;
21010;SDS011;10663;42.714;23.274;2023-10-19T14:29:01;8.18;;;5.57;;
21010;SDS011;10663;42.714;23.274;2023-10-19T14:30:32;6.50;;;5.40;;
21010;SDS011;10663;42.714;23.274;2023-10-19T14:32:03;7.70;;;5.25;;
21010;SDS011;10663;42.714;23.274;2023-10-19T14:33:34;6.27;;;5.03;;
21010;SDS011;10663;42.714;23.274;2023-10-19T14:35:05;5.35;;;4.85;;
21010;SDS011;10663;42.714;23.274;2023-10-19T14:36:39;7.68;;;5.30;;
21010;SDS011;10663;42.714;23.274;2023-10-19T14:38:10;6.10;;;5.27;;
21010;SDS011;10663;42.714;23.274;2023-10-19T14:39:43;6.10;;;5.15;;
21010;SDS011;10663;42.714;23.274;2023-10-19T14:41:15;8.18;;;5.57;;
21010;SDS011;10663;42.714;23.274;2023-10-19T14:42:46;6.30;;;5.70;;
21010;SDS011;10663;42.714;23.274;2023-10-19T14:44:18;7.28;;;5.35;;
21010;SDS011;10663;42.714;23.274;2023-10-19T14:45:48;8.02;;;5.82;;
21010;SDS011;10663;42.714;23.274;2023-10-19T14:47:19;7.00;;;5.00;;
21010;SDS011;10663;42.714;23.274;2023-10-19T14:48:50;6.73;;;5.23;;
21010;SDS011;10663;42.714;23.274;2023-10-19T14:50:21;6.25;;;4.88;;
21010;SDS011;10663;42.714;23.274;2023-10-19T14:51:53;5.65;;;5.05;;
21010;SDS011;10663;42.714;23.274;2023-10-19T14:53:23;5.67;;;4.90;;
21010;SDS011;10663;42.714;23.274;2023-10-19T14:54:54;7.10;;;5.93;;
21010;SDS011;10663;42.714;23.274;2023-10-19T14:56:26;5.72;;;5.22;;
21010;SDS011;10663;42.714;23.274;2023-10-19T14:57:56;7.38;;;5.32;;
21010;SDS011;10663;42.714;23.274;2023-10-19T14:59:27;8.40;;;6.53;;
21010;SDS011;10663;42.714;23.274;2023-10-19T15:00:58;8.30;;;7.05;;
21010;SDS011;10663;42.714;23.274;2023-10-19T15:02:29;8.57;;;7.60;;
21010;SDS011;10663;42.714;23.274;2023-10-19T15:04:00;7.80;;;6.75;;
21010;SDS011;10663;42.714;23.274;2023-10-19T15:05:30;9.10;;;7.30;;
21010;SDS011;10663;42.714;23.274;2023-10-19T15:07:05;11.32;;;8.98;;
21010;SDS011;10663;42.714;23.274;2023-10-19T15:08:36;10.23;;;7.50;;
21010;SDS011;10663;42.714;23.274;2023-10-19T15:10:08;7.63;;;6.63;;
21010;SDS011;10663;42.714;23.274;2023-10-19T15:11:40;6.82;;;6.13;;
21010;SDS011;10663;42.714;23.274;2023-10-19T15:13:11;7.70;;;5.60;;
21010;SDS011;10663;42.714;23.274;2023-10-19T15:14:42;6.32;;;5.55;;
21010;SDS011;10663;42.714;23.274;2023-10-19T15:16:13;8.48;;;5.22;;
21010;SDS011;10663;42.714;23.274;2023-10-19T15:17:44;9.20;;;5.93;;
21010;SDS011;10663;42.714;23.274;2023-10-19T15:19:15;8.75;;;5.65;;
21010;SDS011;10663;42.714;23.274;2023-10-19T15:20:48;7.28;;;5.50;;
21010;SDS011;10663;42.714;23.274;2023-10-19T15:22:19;6.18;;;5.32;;
21010;SDS011;10663;42.714;23.274;2023-10-19T15:23:50;5.35;;;4.85;;
21010;SDS011;10663;42.714;23.274;2023-10-19T15:25:21;6.27;;;5.50;;
21010;SDS011;10663;42.714;23.274;2023-10-19T15:26:54;7.50;;;5.88;;
21010;SDS011;10663;42.714;23.274;2023-10-19T15:28:25;6.13;;;5.53;;
21010;SDS011;10663;42.714;23.274;2023-10-19T15:29:56;6.97;;;6.18;;
21010;SDS011;10663;42.714;23.274;2023-10-19T15:31:27;7.30;;;6.35;;
21010;SDS011;10663;42.714;23.274;2023-10-19T15:32:58;11.35;;;8.15;;
21010;SDS011;10663;42.714;23.274;2023-10-19T15:34:28;13.80;;;8.57;;
21010;SDS011;10663;42.714;23.274;2023-10-19T15:36:04;11.63;;;7.95;;
21010;SDS011;10663;42.714;23.274;2023-10-19T15:37:35;10.27;;;7.25;;
21010;SDS011;10663;42.714;23.274;2023-10-19T15:39:06;8.63;;;7.10;;
21010;SDS011;10663;42.714;23.274;2023-10-19T15:40:41;8.98;;;7.32;;
21010;SDS011;10663;42.714;23.274;2023-10-19T15:42:12;8.10;;;6.87;;
21010;SDS011;10663;42.714;23.274;2023-10-19T15:43:42;8.90;;;7.72;;
21010;SDS011;10663;42.714;23.274;2023-10-19T15:45:14;10.20;;;7.43;;
21010;SDS011;10663;42.714;23.274;2023-10-19T15:46:49;8.93;;;7.93;;
21010;SDS011;10663;42.714;23.274;2023-10-19T15:48:19;11.23;;;8.10;;
21010;SDS011;10663;42.714;23.274;2023-10-19T15:49:52;17.25;;;9.60;;
21010;SDS011;10663;42.714;23.274;2023-10-19T15:51:26;12.27;;;8.63;;
21010;SDS011;10663;42.714;23.274;2023-10-19T15:52:56;12.20;;;7.93;;
21010;SDS011;10663;42.714;23.274;2023-10-19T15:54:27;13.10;;;9.30;;
21010;SDS011;10663;42.714;23.274;2023-10-19T15:55:58;15.90;;;10.27;;
21010;SDS011;10663;42.714;23.274;2023-10-19T15:57:29;11.48;;;8.75;;
21010;SDS011;10663;42.714;23.274;2023-10-19T15:59:01;17.35;;;9.82;;
21010;SDS011;10663;42.714;23.274;2023-10-19T16:00:31;12.07;;;9.33;;
21010;SDS011;10663;42.714;23.274;2023-10-19T16:02:03;10.25;;;8.00;;
21010;SDS011;10663;42.714;23.274;2023-10-19T16:03:35;9.85;;;7.68;;
21010;SDS011;10663;42.714;23.274;2023-10-19T16:05:06;10.43;;;7.93;;
21010;SDS011;10663;42.714;23.274;2023-10-19T16:06:38;10.63;;;8.07;;
21010;SDS011;10663;42.714;23.274;2023-10-19T16:08:09;20.23;;;13.27;;
21010;SDS011;10663;42.714;23.274;2023-10-19T16:09:39;14.68;;;11.00;;
21010;SDS011;10663;42.714;23.274;2023-10-19T16:11:10;13.40;;;9.70;;